Observation data for Levelland on 02/13/2018      Previous  Date  Next       Current Mesonet Observations  Soil Data  Daily Summary Page  Observations in Plain Language
KLD1 130600Z 10006KT M02/M12 A3022 RMK A01 T10221120  RH  048%=      5-min Rain = 0
KLD1 130605Z 10004KT M02/M12 A3023 RMK A01 T10241121  RH  048%=      5-min Rain = 0
KLD1 130610Z 10004KT M03/M12 A3023 RMK A01 T10251121  RH  048%=      5-min Rain = 0
KLD1 130615Z 11004KT M03/M12 A3023 RMK A01 T10261122  RH  048%=      5-min Rain = 0
KLD1 130620Z 11005KT M03/M12 A3023 RMK A01 T10271122  RH  049%=      5-min Rain = 0
KLD1 130625Z 11004KT M03/M12 A3023 RMK A01 T10261120  RH  049%=      5-min Rain = 0
KLD1 130630Z 11003KT M03/M12 A3023 RMK A01 T10261122  RH  048%=      5-min Rain = 0
KLD1 130635Z 09003KT M03/M12 A3023 RMK A01 T10291124  RH  049%=      5-min Rain = 0
KLD1 130640Z 09004KT M03/M12 A3023 RMK A01 T10331124  RH  050%=      5-min Rain = 0
KLD1 130645Z 10004KT M04/M13 A3023 RMK A01 T10361126  RH  050%=      5-min Rain = 0
KLD1 130650Z 10005KT M04/M13 A3023 RMK A01 T10381126  RH  051%=      5-min Rain = 0
KLD1 130655Z 10005KT M04/M13 A3023 RMK A01 T10391126  RH  052%=      5-min Rain = 0
KLD1 130700Z 10005KT M04/M13 A3023 RMK A01 T10391126  RH  052%=      5-min Rain = 0
KLD1 130705Z 10005KT M04/M13 A3022 RMK A01 T10391126  RH  051%=      5-min Rain = 0
KLD1 130710Z 09004KT M04/M13 A3022 RMK A01 T10411129  RH  051%=      5-min Rain = 0
KLD1 130715Z 09004KT M05/M13 A3022 RMK A01 T10461131  RH  052%=      5-min Rain = 0
KLD1 130720Z 09004KT M05/M13 A3022 RMK A01 T10481130  RH  053%=      5-min Rain = 0
KLD1 130725Z 09005KT M05/M13 A3022 RMK A01 T10481129  RH  054%=      5-min Rain = 0
KLD1 130730Z 09004KT M05/M13 A3022 RMK A01 T10471129  RH  053%=      5-min Rain = 0
KLD1 130735Z 08004KT M05/M13 A3022 RMK A01 T10461129  RH  053%=      5-min Rain = 0
KLD1 130740Z 08004KT M05/M13 A3022 RMK A01 T10451127  RH  053%=      5-min Rain = 0
KLD1 130745Z 09004KT M04/M13 A3022 RMK A01 T10421125  RH  053%=      5-min Rain = 0
KLD1 130750Z 09004KT M04/M13 A3022 RMK A01 T10401125  RH  052%=      5-min Rain = 0
KLD1 130755Z 08004KT M04/M13 A3022 RMK A01 T10421126  RH  052%=      5-min Rain = 0
KLD1 130800Z 05004KT M05/M13 A3023 RMK A01 T10451126  RH  054%=      5-min Rain = 0
KLD1 130805Z 07005KT M05/M12 A3022 RMK A01 T10461124  RH  055%=      5-min Rain = 0
KLD1 130810Z 09005KT M05/M13 A3022 RMK A01 T10461125  RH  055%=      5-min Rain = 0
KLD1 130815Z 09004KT M05/M13 A3022 RMK A01 T10461125  RH  055%=      5-min Rain = 0
KLD1 130820Z 07003KT M05/M13 A3022 RMK A01 T10451127  RH  054%=      5-min Rain = 0
KLD1 130825Z 06003KT M05/M13 A3023 RMK A01 T10471127  RH  054%=      5-min Rain = 0
KLD1 130830Z 05002KT M05/M13 A3023 RMK A01 T10471125  RH  055%=      5-min Rain = 0
KLD1 130835Z 05002KT M05/M13 A3023 RMK A01 T10481127  RH  055%=      5-min Rain = 0
KLD1 130840Z 03001KT M05/M13 A3023 RMK A01 T10501127  RH  055%=      5-min Rain = 0
KLD1 130845Z 06002KT M05/M13 A3023 RMK A01 T10491125  RH  056%=      5-min Rain = 0
KLD1 130850Z 08001KT M05/M12 A3023 RMK A01 T10491124  RH  056%=      5-min Rain = 0
KLD1 130855Z 00000KT M05/M13 A3024 RMK A01 T10481126  RH  055%=      5-min Rain = 0
KLD1 130900Z 28001KT M06/M14 A3024 RMK A01 T10571135  RH  055%=      5-min Rain = 0
KLD1 130905Z 29003KT M07/M14 A3024 RMK A01 T10661137  RH  058%=      5-min Rain = 0
KLD1 130910Z 29003KT M07/M14 A3024 RMK A01 T10681139  RH  058%=      5-min Rain = 0
KLD1 130915Z 29001KT M07/M14 A3024 RMK A01 T10701139  RH  058%=      5-min Rain = 0
KLD1 130920Z 24001KT M07/M14 A3024 RMK A01 T10681136  RH  059%=      5-min Rain = 0
KLD1 130925Z 23000KT M06/M13 A3024 RMK A01 T10641132  RH  059%=      5-min Rain = 0
KLD1 130930Z 15000KT M06/M13 A3024 RMK A01 T10611130  RH  059%=      5-min Rain = 0
KLD1 130935Z 12002KT M06/M13 A3023 RMK A01 T10581132  RH  057%=      5-min Rain = 0
KLD1 130940Z 11001KT M06/M14 A3023 RMK A01 T10611139  RH  055%=      5-min Rain = 0
KLD1 130945Z 35001KT M07/M14 A3023 RMK A01 T10681139  RH  058%=      5-min Rain = 0
KLD1 130950Z 06001KT M07/M14 A3023 RMK A01 T10671136  RH  059%=      5-min Rain = 0
KLD1 130955Z 06002KT M07/M14 A3023 RMK A01 T10691140  RH  058%=      5-min Rain = 0
KLD1 131000Z 04001KT M07/M14 A3023 RMK A01 T10701140  RH  058%=      5-min Rain = 0
KLD1 131005Z 03002KT M07/M14 A3022 RMK A01 T10701137  RH  060%=      5-min Rain = 0
KLD1 131010Z 03003KT M07/M13 A3022 RMK A01 T10671134  RH  060%=      5-min Rain = 0
KLD1 131015Z 03004KT M07/M13 A3022 RMK A01 T10671131  RH  061%=      5-min Rain = 0
KLD1 131020Z 04003KT M06/M13 A3022 RMK A01 T10631129  RH  060%=      5-min Rain = 0
KLD1 131025Z 06003KT M06/M13 A3022 RMK A01 T10611130  RH  059%=      5-min Rain = 0
KLD1 131030Z 06003KT M06/M13 A3022 RMK A01 T10601129  RH  059%=      5-min Rain = 0
KLD1 131035Z 07003KT M06/M13 A3022 RMK A01 T10591128  RH  059%=      5-min Rain = 0
KLD1 131040Z 07003KT M06/M13 A3022 RMK A01 T10561126  RH  059%=      5-min Rain = 0
KLD1 131045Z 07003KT M06/M13 A3022 RMK A01 T10561128  RH  058%=      5-min Rain = 0
KLD1 131050Z 08003KT M06/M13 A3022 RMK A01 T10581131  RH  057%=      5-min Rain = 0
KLD1 131055Z 08003KT M06/M13 A3022 RMK A01 T10611132  RH  058%=      5-min Rain = 0
KLD1 131100Z 05003KT M06/M13 A3022 RMK A01 T10601127  RH  060%=      5-min Rain = 0
KLD1 131105Z 02004KT M06/M13 A3023 RMK A01 T10631134  RH  058%=      5-min Rain = 0
KLD1 131110Z 01005KT M07/M13 A3023 RMK A01 T10661131  RH  061%=      5-min Rain = 0
KLD1 131115Z 02004KT M07/M13 A3023 RMK A01 T10651129  RH  061%=      5-min Rain = 0
KLD1 131120Z 00002KT M06/M13 A3024 RMK A01 T10641128  RH  061%=      5-min Rain = 0
KLD1 131125Z 33003KT M06/M13 A3024 RMK A01 T10621126  RH  061%=      5-min Rain = 0
KLD1 131130Z 35003KT M06/M13 A3024 RMK A01 T10631129  RH  060%=      5-min Rain = 0
KLD1 131135Z 01002KT M06/M13 A3024 RMK A01 T10631127  RH  061%=      5-min Rain = 0
KLD1 131140Z 03003KT M06/M13 A3024 RMK A01 T10631126  RH  062%=      5-min Rain = 0
KLD1 131145Z 03001KT M06/M12 A3024 RMK A01 T10621124  RH  062%=      5-min Rain = 0
KLD1 131150Z 01001KT M06/M12 A3025 RMK A01 T10591122  RH  062%=      5-min Rain = 0
KLD1 131155Z 05002KT M06/M12 A3024 RMK A01 T10581121  RH  062%=      5-min Rain = 0
KLD1 131200Z 08002KT M06/M12 A3024 RMK A01 T10571119  RH  062%=      5-min Rain = 0
KLD1 131205Z 08003KT M05/M12 A3024 RMK A01 T10541121  RH  060%=      5-min Rain = 0
KLD1 131210Z 09003KT M06/M13 A3025 RMK A01 T10561128  RH  058%=      5-min Rain = 0
KLD1 131215Z 09004KT M06/M13 A3024 RMK A01 T10591129  RH  058%=      5-min Rain = 0
KLD1 131220Z 09004KT M05/M12 A3024 RMK A01 T10541120  RH  060%=      5-min Rain = 0
KLD1 131225Z 10005KT M05/M12 A3024 RMK A01 T10521121  RH  059%=      5-min Rain = 0
KLD1 131230Z 09004KT M05/M12 A3024 RMK A01 T10521123  RH  058%=      5-min Rain = 0
KLD1 131235Z 07003KT M06/M13 A3025 RMK A01 T10571133  RH  056%=      5-min Rain = 0
KLD1 131240Z 06003KT M06/M13 A3025 RMK A01 T10621132  RH  058%=      5-min Rain = 0
KLD1 131245Z 08003KT M06/M13 A3025 RMK A01 T10601126  RH  060%=      5-min Rain = 0
KLD1 131250Z 09003KT M06/M12 A3025 RMK A01 T10561122  RH  061%=      5-min Rain = 0
KLD1 131255Z 10002KT M05/M12 A3025 RMK A01 T10521120  RH  060%=      5-min Rain = 0
KLD1 131300Z 11002KT M05/M12 A3025 RMK A01 T10501120  RH  059%=      5-min Rain = 0
KLD1 131305Z 12002KT M05/M12 A3025 RMK A01 T10491120  RH  059%=      5-min Rain = 0
KLD1 131310Z 12003KT M05/M12 A3026 RMK A01 T10481119  RH  059%=      5-min Rain = 0
KLD1 131315Z 11003KT M05/M12 A3025 RMK A01 T10471118  RH  058%=      5-min Rain = 0
KLD1 131320Z 12003KT M05/M12 A3025 RMK A01 T10461117  RH  059%=      5-min Rain = 0
KLD1 131325Z 13003KT M05/M12 A3025 RMK A01 T10461118  RH  058%=      5-min Rain = 0
KLD1 131330Z 12003KT M05/M12 A3025 RMK A01 T10461117  RH  058%=      5-min Rain = 0
KLD1 131335Z 12004KT M05/M12 A3025 RMK A01 T10461117  RH  058%=      5-min Rain = 0
KLD1 131340Z 11004KT M05/M12 A3026 RMK A01 T10461119  RH  058%=      5-min Rain = 0
KLD1 131345Z 11005KT M05/M12 A3026 RMK A01 T10471120  RH  058%=      5-min Rain = 0
KLD1 131350Z 12005KT M05/M12 A3026 RMK A01 T10461119  RH  058%=      5-min Rain = 0
KLD1 131355Z 12004KT M04/M12 A3026 RMK A01 T10421115  RH  058%=      5-min Rain = 0
KLD1 131400Z 12004KT M04/M11 A3026 RMK A01 T10401112  RH  058%=      5-min Rain = 0
KLD1 131405Z 12004KT M04/M11 A3027 RMK A01 T10381108  RH  059%=      5-min Rain = 0
KLD1 131410Z 10003KT M04/M11 A3027 RMK A01 T10371108  RH  059%=      5-min Rain = 0
KLD1 131415Z 07003KT M04/M11 A3027 RMK A01 T10361109  RH  058%=      5-min Rain = 0
KLD1 131420Z 09003KT M04/M11 A3028 RMK A01 T10371108  RH  059%=      5-min Rain = 0
KLD1 131425Z 10003KT M04/M11 A3028 RMK A01 T10351106  RH  059%=      5-min Rain = 0
KLD1 131430Z 11002KT M03/M11 A3028 RMK A01 T10331105  RH  058%=      5-min Rain = 0
KLD1 131435Z 14001KT M03/M10 A3028 RMK A01 T10311104  RH  058%=      5-min Rain = 0
KLD1 131440Z 14002KT M03/M10 A3028 RMK A01 T10281102  RH  058%=      5-min Rain = 0
KLD1 131445Z 12002KT M02/M10 A3028 RMK A01 T10231097  RH  057%=      5-min Rain = 0
KLD1 131450Z 13002KT M02/M10 A3029 RMK A01 T10201095  RH  057%=      5-min Rain = 0
KLD1 131455Z 14002KT M02/M09 A3029 RMK A01 T10191092  RH  058%=      5-min Rain = 0
KLD1 131500Z 16003KT M02/M09 A3029 RMK A01 T10161087  RH  059%=      5-min Rain = 0
KLD1 131505Z 16004KT M01/M08 A303 RMK A01 T10141084  RH  059%=      5-min Rain = 0
KLD1 131510Z 15004KT M01/M08 A303 RMK A01 T10131084  RH  059%=      5-min Rain = 0
KLD1 131515Z 15004KT M01/M09 A303 RMK A01 T10131086  RH  058%=      5-min Rain = 0
KLD1 131520Z 16003KT M01/M09 A303 RMK A01 T10111085  RH  058%=      5-min Rain = 0
KLD1 131525Z 15003KT M01/M08 A3031 RMK A01 T10051083  RH  056%=      5-min Rain = 0
KLD1 131530Z 16005KT M00/M08 A3031 RMK A01 T10021081  RH  056%=      5-min Rain = 0
KLD1 131535Z 16006KT 00/M08 A3031 RMK A01 T00031076  RH  056%=      5-min Rain = 0
KLD1 131540Z 17006KT 01/M07 A3031 RMK A01 T00061072  RH  057%=      5-min Rain = 0
KLD1 131545Z 16006KT 01/M07 A3031 RMK A01 T00111069  RH  056%=      5-min Rain = 0
KLD1 131550Z 19006KT 02/M07 A3031 RMK A01 T00191065  RH  054%=      5-min Rain = 0
KLD1 131555Z 17006KT 03/M06 A3031 RMK A01 T00271062  RH  053%=      5-min Rain = 0
KLD1 131600Z 18007KT 04/M05 A3031 RMK A01 T00361054  RH  052%=      5-min Rain = 0
KLD1 131605Z 19007KT 04/M05 A3031 RMK A01 T00411052  RH  052%=      5-min Rain = 0
KLD1 131610Z 19008G13KT 04/M05 A3031 RMK A01 T00431048  RH  052%=      5-min Rain = 0
KLD1 131615Z 19009KT 05/M05 A3031 RMK A01 T00461046  RH  052%=      5-min Rain = 0
KLD1 131620Z 20011KT 05/M04 A3031 RMK A01 T00481040  RH  054%=      5-min Rain = 0
KLD1 131625Z 20010KT 05/M04 A3031 RMK A01 T00471039  RH  054%=      5-min Rain = 0
KLD1 131630Z 19011KT 05/M04 A3031 RMK A01 T00461041  RH  054%=      5-min Rain = 0
KLD1 131635Z 19011KT 05/M04 A3031 RMK A01 T00451042  RH  054%=      5-min Rain = 0
KLD1 131640Z 20009KT 05/M04 A3031 RMK A01 T00501038  RH  054%=      5-min Rain = 0
KLD1 131645Z 20011KT 06/M04 A3031 RMK A01 T00571035  RH  052%=      5-min Rain = 0
KLD1 131650Z 21011KT 06/M03 A3031 RMK A01 T00641032  RH  050%=      5-min Rain = 0
KLD1 131655Z 21010KT 07/M03 A3031 RMK A01 T00651034  RH  050%=      5-min Rain = 0
KLD1 131700Z 22009KT 07/M03 A303 RMK A01 T00701033  RH  048%=      5-min Rain = 0
KLD1 131705Z 21010KT 07/M03 A3031 RMK A01 T00731032  RH  048%=      5-min Rain = 0
KLD1 131710Z 21009KT 07/M03 A3031 RMK A01 T00741033  RH  047%=      5-min Rain = 0
KLD1 131715Z 22010KT 08/M03 A3031 RMK A01 T00751034  RH  046%=      5-min Rain = 0
KLD1 131720Z 21010KT 08/M03 A3031 RMK A01 T00791034  RH  045%=      5-min Rain = 0
KLD1 131725Z 20009KT 08/M04 A303 RMK A01 T00801035  RH  045%=      5-min Rain = 0
KLD1 131730Z 19008KT 08/M03 A303 RMK A01 T00831034  RH  044%=      5-min Rain = 0
KLD1 131735Z 22009KT 08/M03 A303 RMK A01 T00841032  RH  044%=      5-min Rain = 0
KLD1 131740Z 21008G14KT 09/M03 A303 RMK A01 T00881029  RH  044%=      5-min Rain = 0
KLD1 131745Z 20008KT 09/M03 A303 RMK A01 T00921028  RH  043%=      5-min Rain = 0
KLD1 131750Z 20007KT 10/M03 A303 RMK A01 T00951029  RH  042%=      5-min Rain = 0
KLD1 131755Z 20008KT 10/M03 A3029 RMK A01 T00971027  RH  042%=      5-min Rain = 0
KLD1 131800Z 18009KT 10/M03 A3029 RMK A01 T00991026  RH  042%=      5-min Rain = 0
KLD1 131805Z 18009KT 10/M03 A3028 RMK A01 T01001025  RH  042%=      5-min Rain = 0
KLD1 131810Z 19009KT 10/M03 A3028 RMK A01 T01011025  RH  042%=      5-min Rain = 0
KLD1 131815Z 19009KT 11/M02 A3028 RMK A01 T01051024  RH  041%=      5-min Rain = 0
KLD1 131820Z 17009KT 11/M02 A3028 RMK A01 T01051024  RH  041%=      5-min Rain = 0
KLD1 131825Z 18008G13KT 11/M02 A3028 RMK A01 T01051023  RH  041%=      5-min Rain = 0
KLD1 131830Z 19007G14KT 11/M02 A3028 RMK A01 T01101023  RH  040%=      5-min Rain = 0
KLD1 131835Z 19008KT 12/M02 A3028 RMK A01 T01151024  RH  038%=      5-min Rain = 0
KLD1 131840Z 18008G13KT 12/M02 A3028 RMK A01 T01151024  RH  038%=      5-min Rain = 0
KLD1 131845Z 17009G15KT 11/M02 A3028 RMK A01 T01121024  RH  039%=      5-min Rain = 0
KLD1 131850Z 18009KT 11/M02 A3028 RMK A01 T01131023  RH  039%=      5-min Rain = 0
KLD1 131855Z 18009KT 12/M02 A3028 RMK A01 T01161021  RH  039%=      5-min Rain = 0
KLD1 131900Z 19009KT 12/M02 A3028 RMK A01 T01171020  RH  039%=      5-min Rain = 0
KLD1 131905Z 18008KT 12/M02 A3027 RMK A01 T01191020  RH  038%=      5-min Rain = 0
KLD1 131910Z 18010KT 12/M02 A3027 RMK A01 T01221021  RH  037%=      5-min Rain = 0
KLD1 131915Z 19009KT 12/M02 A3027 RMK A01 T01191022  RH  038%=      5-min Rain = 0
KLD1 131920Z 19009KT 12/M02 A3027 RMK A01 T01201021  RH  038%=      5-min Rain = 0
KLD1 131925Z 20008KT 12/M02 A3027 RMK A01 T01231021  RH  037%=      5-min Rain = 0
KLD1 131930Z 19007KT 13/M02 A3027 RMK A01 T01261021  RH  036%=      5-min Rain = 0
KLD1 131935Z 21009G14KT 13/M02 A3026 RMK A01 T01251021  RH  036%=      5-min Rain = 0
KLD1 131940Z 18008G14KT 13/M02 A3026 RMK A01 T01261018  RH  037%=      5-min Rain = 0
KLD1 131945Z 18009G14KT 13/M02 A3026 RMK A01 T01281017  RH  037%=      5-min Rain = 0
KLD1 131950Z 18008KT 13/M02 A3025 RMK A01 T01301017  RH  037%=      5-min Rain = 0
KLD1 131955Z 17008KT 13/M02 A3025 RMK A01 T01331017  RH  036%=      5-min Rain = 0
KLD1 132000Z 17009G14KT 13/M02 A3025 RMK A01 T01321018  RH  036%=      5-min Rain = 0
KLD1 132005Z 17009KT 13/M02 A3024 RMK A01 T01331019  RH  035%=      5-min Rain = 0
KLD1 132010Z 17009G15KT 14/M02 A3024 RMK A01 T01351019  RH  035%=      5-min Rain = 0
KLD1 132015Z 18009G15KT 14/M02 A3024 RMK A01 T01401019  RH  034%=      5-min Rain = 0
KLD1 132020Z 17009KT 14/M02 A3023 RMK A01 T01401017  RH  034%=      5-min Rain = 0
KLD1 132025Z 17011KT 14/M01 A3023 RMK A01 T01421014  RH  034%=      5-min Rain = 0
KLD1 132030Z 18010KT 14/M01 A3023 RMK A01 T01421012  RH  035%=      5-min Rain = 0
KLD1 132035Z 18007G13KT 14/M01 A3023 RMK A01 T01441010  RH  035%=      5-min Rain = 0
KLD1 132040Z 16009KT 15/M01 A3023 RMK A01 T01471008  RH  035%=      5-min Rain = 0
KLD1 132045Z 17010KT 15/M01 A3023 RMK A01 T01481006  RH  035%=      5-min Rain = 0
KLD1 132050Z 18010KT 15/M01 A3023 RMK A01 T01531006  RH  034%=      5-min Rain = 0
KLD1 132055Z 18008G13KT 15/M01 A3023 RMK A01 T01511006  RH  034%=      5-min Rain = 0
KLD1 132100Z 17009G16KT 15/M01 A3023 RMK A01 T01511006  RH  035%=      5-min Rain = 0
KLD1 132105Z 18009G14KT 15/M01 A3023 RMK A01 T01521007  RH  034%=      5-min Rain = 0
KLD1 132110Z 18010G15KT 15/M01 A3023 RMK A01 T01511007  RH  034%=      5-min Rain = 0
KLD1 132115Z 18011KT 15/M01 A3023 RMK A01 T01531006  RH  034%=      5-min Rain = 0
KLD1 132120Z 17008KT 16/M01 A3023 RMK A01 T01561006  RH  033%=      5-min Rain = 0
KLD1 132125Z 18009KT 15/M01 A3024 RMK A01 T01541006  RH  034%=      5-min Rain = 0
KLD1 132130Z 19011KT 15/M00 A3023 RMK A01 T01541004  RH  034%=      5-min Rain = 0
KLD1 132135Z 17009KT 16/M00 A3023 RMK A01 T01561002  RH  034%=      5-min Rain = 0
KLD1 132140Z 17010KT 16/M00 A3023 RMK A01 T01581003  RH  034%=      5-min Rain = 0
KLD1 132145Z 18010KT 16/M00 A3023 RMK A01 T01581004  RH  033%=      5-min Rain = 0
KLD1 132150Z 17011KT 16/M00 A3023 RMK A01 T01571004  RH  034%=      5-min Rain = 0
KLD1 132155Z 16009KT 16/M00 A3023 RMK A01 T01561004  RH  034%=      5-min Rain = 0
KLD1 132200Z 18009KT 16/M00 A3023 RMK A01 T01571004  RH  034%=      5-min Rain = 0
KLD1 132205Z 20009KT 16/M01 A3023 RMK A01 T01591005  RH  033%=      5-min Rain = 0
KLD1 132210Z 18009KT 16/M01 A3023 RMK A01 T01591006  RH  033%=      5-min Rain = 0
KLD1 132215Z 19009KT 16/M01 A3022 RMK A01 T01591005  RH  033%=      5-min Rain = 0
KLD1 132220Z 17009KT 16/M00 A3022 RMK A01 T01591004  RH  033%=      5-min Rain = 0
KLD1 132225Z 17009KT 16/M01 A3022 RMK A01 T01601005  RH  033%=      5-min Rain = 0
KLD1 132230Z 17009KT 16/M00 A3022 RMK A01 T01611003  RH  033%=      5-min Rain = 0
KLD1 132235Z 16010KT 16/M00 A3022 RMK A01 T01581004  RH  033%=      5-min Rain = 0
KLD1 132240Z 17008KT 16/M00 A3022 RMK A01 T01581003  RH  034%=      5-min Rain = 0
KLD1 132245Z 17008KT 16/M00 A3022 RMK A01 T01611003  RH  033%=      5-min Rain = 0
KLD1 132250Z 17009KT 16/M00 A3022 RMK A01 T01611003  RH  033%=      5-min Rain = 0
KLD1 132255Z 17007KT 16/M00 A3023 RMK A01 T01571002  RH  034%=      5-min Rain = 0
KLD1 132300Z 16007KT 16/M00 A3022 RMK A01 T01581001  RH  034%=      5-min Rain = 0
KLD1 132305Z 16008KT 16/M00 A3022 RMK A01 T01601001  RH  034%=      5-min Rain = 0
KLD1 132310Z 16009KT 16/M00 A3022 RMK A01 T01601002  RH  034%=      5-min Rain = 0
KLD1 132315Z 17009KT 16/M00 A3022 RMK A01 T01581001  RH  034%=      5-min Rain = 0
KLD1 132320Z 16010KT 16/M00 A3022 RMK A01 T01551001  RH  035%=      5-min Rain = 0
KLD1 132325Z 16008KT 15/00 A3022 RMK A01 T015400-0  RH  035%=      5-min Rain = 0
KLD1 132330Z 16009KT 16/00 A3023 RMK A01 T01550000  RH  035%=      5-min Rain = 0
KLD1 132335Z 17008KT 16/00 A3023 RMK A01 T01560001  RH  035%=      5-min Rain = 0
KLD1 132340Z 17008KT 15/00 A3023 RMK A01 T01540002  RH  036%=      5-min Rain = 0
KLD1 132345Z 16008KT 15/00 A3023 RMK A01 T01520002  RH  036%=      5-min Rain = 0
KLD1 132350Z 16007KT 15/00 A3023 RMK A01 T01490002  RH  037%=      5-min Rain = 0
KLD1 132355Z 16007KT 15/00 A3023 RMK A01 T01460001  RH  037%=      5-min Rain = 0
KLD1 140000Z 16008KT 14/00 A3023 RMK A01 T01430002  RH  038%=      5-min Rain = 0
KLD1 140005Z 16007KT 14/00 A3023 RMK A01 T01410002  RH  039%=      5-min Rain = 0
KLD1 140010Z 16007KT 14/00 A3023 RMK A01 T01380001  RH  040%=      5-min Rain = 0
KLD1 140015Z 16006KT 14/00 A3023 RMK A01 T013500-0  RH  040%=      5-min Rain = 0
KLD1 140020Z 16006KT 13/M00 A3023 RMK A01 T01321002  RH  040%=      5-min Rain = 0
KLD1 140025Z 16006KT 13/M00 A3023 RMK A01 T01271003  RH  041%=      5-min Rain = 0
KLD1 140030Z 16006KT 12/M01 A3023 RMK A01 T01231005  RH  042%=      5-min Rain = 0
KLD1 140035Z 16006KT 12/M01 A3023 RMK A01 T01181006  RH  043%=      5-min Rain = 0
KLD1 140040Z 16005KT 12/M01 A3023 RMK A01 T01151007  RH  043%=      5-min Rain = 0
KLD1 140045Z 15006KT 11/M01 A3023 RMK A01 T01111008  RH  044%=      5-min Rain = 0
KLD1 140050Z 16006KT 11/M01 A3024 RMK A01 T01081010  RH  044%=      5-min Rain = 0
KLD1 140055Z 15006KT 10/M01 A3024 RMK A01 T01031011  RH  045%=      5-min Rain = 0
KLD1 140100Z 15006KT 10/M01 A3024 RMK A01 T01011011  RH  046%=      5-min Rain = 0
KLD1 140105Z 15007KT 10/M01 A3023 RMK A01 T00981011  RH  047%=      5-min Rain = 0
KLD1 140110Z 15008KT 10/M01 A3023 RMK A01 T00961012  RH  047%=      5-min Rain = 0
KLD1 140115Z 16008KT 09/M01 A3024 RMK A01 T00911014  RH  048%=      5-min Rain = 0
KLD1 140120Z 16008KT 09/M01 A3024 RMK A01 T00881014  RH  049%=      5-min Rain = 0
KLD1 140125Z 16008KT 09/M02 A3024 RMK A01 T00851015  RH  050%=      5-min Rain = 0
KLD1 140130Z 16007KT 08/M02 A3024 RMK A01 T00831017  RH  050%=      5-min Rain = 0
KLD1 140135Z 16007KT 08/M02 A3025 RMK A01 T00811017  RH  050%=      5-min Rain = 0
KLD1 140140Z 15007KT 08/M02 A3025 RMK A01 T00801018  RH  051%=      5-min Rain = 0
KLD1 140145Z 15007KT 08/M02 A3025 RMK A01 T00791017  RH  051%=      5-min Rain = 0
KLD1 140150Z 14007KT 08/M02 A3024 RMK A01 T00781015  RH  053%=      5-min Rain = 0
KLD1 140155Z 15008KT 08/M02 A3024 RMK A01 T00761016  RH  053%=      5-min Rain = 0
KLD1 140200Z 15008KT 08/M02 A3024 RMK A01 T00751015  RH  054%=      5-min Rain = 0
KLD1 140205Z 15008KT 07/M02 A3025 RMK A01 T00741015  RH  054%=      5-min Rain = 0
KLD1 140210Z 15006KT 07/M01 A3025 RMK A01 T00731014  RH  054%=      5-min Rain = 0
KLD1 140215Z 15007KT 07/M02 A3025 RMK A01 T00721015  RH  055%=      5-min Rain = 0
KLD1 140220Z 15007KT 07/M01 A3025 RMK A01 T00721012  RH  056%=      5-min Rain = 0
KLD1 140225Z 15007KT 07/M01 A3025 RMK A01 T00731009  RH  056%=      5-min Rain = 0
KLD1 140230Z 14006KT 08/M01 A3025 RMK A01 T00751009  RH  056%=      5-min Rain = 0
KLD1 140235Z 14003KT 07/M02 A3025 RMK A01 T00731016  RH  054%=      5-min Rain = 0
KLD1 140240Z 10001KT 06/M02 A3025 RMK A01 T00611023  RH  055%=      5-min Rain = 0
KLD1 140245Z 11001KT 06/M02 A3025 RMK A01 T00571017  RH  060%=      5-min Rain = 0
KLD1 140250Z 15002KT 06/M01 A3025 RMK A01 T00601013  RH  060%=      5-min Rain = 0
KLD1 140255Z 16003KT 06/M01 A3025 RMK A01 T00611011  RH  060%=      5-min Rain = 0
KLD1 140300Z 16004KT 07/M01 A3025 RMK A01 T00671007  RH  060%=      5-min Rain = 0
KLD1 140305Z 16006KT 07/M01 A3025 RMK A01 T00741007  RH  057%=      5-min Rain = 0
KLD1 140310Z 16007KT 07/M01 A3025 RMK A01 T00731010  RH  056%=      5-min Rain = 0
KLD1 140315Z 16007KT 07/M01 A3025 RMK A01 T00691011  RH  057%=      5-min Rain = 0
KLD1 140320Z 16007KT 07/M01 A3025 RMK A01 T00661014  RH  057%=      5-min Rain = 0
KLD1 140325Z 16007KT 07/M01 A3025 RMK A01 T00651014  RH  058%=      5-min Rain = 0
KLD1 140330Z 16006KT 06/M01 A3025 RMK A01 T00641014  RH  058%=      5-min Rain = 0
KLD1 140335Z 16005KT 06/M01 A3026 RMK A01 T00631014  RH  058%=      5-min Rain = 0
KLD1 140340Z 17002KT 06/M02 A3026 RMK A01 T00601016  RH  059%=      5-min Rain = 0
KLD1 140345Z 16000KT 06/M02 A3026 RMK A01 T00551020  RH  059%=      5-min Rain = 0
KLD1 140350Z 19001KT 05/M02 A3026 RMK A01 T00541015  RH  062%=      5-min Rain = 0
KLD1 140355Z 18004KT 06/M02 A3026 RMK A01 T00551019  RH  059%=      5-min Rain = 0
KLD1 140400Z 18005KT 05/M03 A3026 RMK A01 T00481027  RH  059%=      5-min Rain = 0
KLD1 140405Z 18006KT 05/M03 A3026 RMK A01 T00461025  RH  061%=      5-min Rain = 0
KLD1 140410Z 18005KT 05/M02 A3026 RMK A01 T00481022  RH  061%=      5-min Rain = 0
KLD1 140415Z 19002KT 05/M02 A3026 RMK A01 T00511019  RH  062%=      5-min Rain = 0
KLD1 140420Z 31001KT 05/M02 A3026 RMK A01 T00541018  RH  060%=      5-min Rain = 0
KLD1 140425Z 25001KT 05/M02 A3026 RMK A01 T00511018  RH  062%=      5-min Rain = 0
KLD1 140430Z 20002KT 05/M02 A3026 RMK A01 T00531017  RH  061%=      5-min Rain = 0
KLD1 140435Z 19003KT 06/M02 A3026 RMK A01 T00561015  RH  061%=      5-min Rain = 0
KLD1 140440Z 19004KT 06/M01 A3025 RMK A01 T00631011  RH  060%=      5-min Rain = 0
KLD1 140445Z 18005KT 07/M01 A3025 RMK A01 T00691012  RH  057%=      5-min Rain = 0
KLD1 140450Z 17005KT 07/M01 A3025 RMK A01 T00681012  RH  057%=      5-min Rain = 0
KLD1 140455Z 17006KT 07/M01 A3025 RMK A01 T00681012  RH  057%=      5-min Rain = 0
KLD1 140500Z 17006KT 07/M01 A3025 RMK A01 T00661014  RH  057%=      5-min Rain = 0
KLD1 140505Z 17007KT 07/M01 A3025 RMK A01 T00661013  RH  058%=      5-min Rain = 0
KLD1 140510Z 17007KT 07/M01 A3024 RMK A01 T00671013  RH  057%=      5-min Rain = 0
KLD1 140515Z 17007KT 07/M01 A3024 RMK A01 T00671014  RH  057%=      5-min Rain = 0
KLD1 140520Z 18006KT 07/M01 A3025 RMK A01 T00681011  RH  058%=      5-min Rain = 0
KLD1 140525Z 18006KT 07/M01 A3025 RMK A01 T00701010  RH  057%=      5-min Rain = 0
KLD1 140530Z 18006KT 07/M01 A3024 RMK A01 T00691011  RH  057%=      5-min Rain = 0
KLD1 140535Z 18006KT 07/M01 A3024 RMK A01 T00681011  RH  058%=      5-min Rain = 0
KLD1 140540Z 18006KT 07/M01 A3024 RMK A01 T00681010  RH  058%=      5-min Rain = 0
KLD1 140545Z 18006KT 07/M01 A3024 RMK A01 T00701009  RH  058%=      5-min Rain = 0
KLD1 140550Z 18005KT 07/M01 A3024 RMK A01 T00711009  RH  057%=      5-min Rain = 0
KLD1 140555Z 18004KT 07/M01 A3024 RMK A01 T00701010  RH  057%=      5-min Rain = 0

Page generated in 0.0099 seconds.